sensor_id;sensor_type;location;lat;lon;timestamp;temperature;humidity
10889;DHT22;5497;51.388;6.780;2023-02-22T00:00:10;6.40;99.90
10889;DHT22;5497;51.388;6.780;2023-02-22T00:02:45;6.30;99.90
10889;DHT22;5497;51.388;6.780;2023-02-22T00:05:13;6.30;99.90
10889;DHT22;5497;51.388;6.780;2023-02-22T00:07:41;6.20;99.90
10889;DHT22;5497;51.388;6.780;2023-02-22T00:10:09;6.10;99.90
10889;DHT22;5497;51.388;6.780;2023-02-22T00:12:39;6.00;99.90
10889;DHT22;5497;51.388;6.780;2023-02-22T00:15:06;5.90;99.90
10889;DHT22;5497;51.388;6.780;2023-02-22T00:17:33;5.80;99.90
10889;DHT22;5497;51.388;6.780;2023-02-22T00:20:00;5.70;99.90
10889;DHT22;5497;51.388;6.780;2023-02-22T00:22:29;5.60;99.90
10889;DHT22;5497;51.388;6.780;2023-02-22T00:24:56;5.60;99.90
10889;DHT22;5497;51.388;6.780;2023-02-22T00:27:23;5.60;99.90
10889;DHT22;5497;51.388;6.780;2023-02-22T00:29:51;5.50;99.90
10889;DHT22;5497;51.388;6.780;2023-02-22T00:32:21;5.40;99.90
10889;DHT22;5497;51.388;6.780;2023-02-22T00:34:50;5.40;99.90
10889;DHT22;5497;51.388;6.780;2023-02-22T00:37:16;5.30;99.90
10889;DHT22;5497;51.388;6.780;2023-02-22T00:39:45;5.30;99.90
10889;DHT22;5497;51.388;6.780;2023-02-22T00:42:14;5.20;99.90
10889;DHT22;5497;51.388;6.780;2023-02-22T00:44:43;5.10;99.90
10889;DHT22;5497;51.388;6.780;2023-02-22T00:47:12;5.00;99.90
10889;DHT22;5497;51.388;6.780;2023-02-22T00:49:40;4.90;99.90
10889;DHT22;5497;51.388;6.780;2023-02-22T00:52:08;4.90;99.90
10889;DHT22;5497;51.388;6.780;2023-02-22T00:54:34;4.80;99.90
10889;DHT22;5497;51.388;6.780;2023-02-22T00:57:01;4.70;99.90
10889;DHT22;5497;51.388;6.780;2023-02-22T00:59:29;4.60;99.90
10889;DHT22;5497;51.388;6.780;2023-02-22T01:01:56;4.60;99.90
10889;DHT22;5497;51.388;6.780;2023-02-22T01:04:25;4.50;99.90
10889;DHT22;5497;51.388;6.780;2023-02-22T01:06:51;4.50;99.90
10889;DHT22;5497;51.388;6.780;2023-02-22T01:09:20;4.40;99.90
10889;DHT22;5497;51.388;6.780;2023-02-22T01:11:47;4.40;99.90
10889;DHT22;5497;51.388;6.780;2023-02-22T01:14:14;4.30;99.90
10889;DHT22;5497;51.388;6.780;2023-02-22T01:16:40;4.30;99.90
10889;DHT22;5497;51.388;6.780;2023-02-22T01:19:08;4.20;99.90
10889;DHT22;5497;51.388;6.780;2023-02-22T01:21:39;4.20;99.90
10889;DHT22;5497;51.388;6.780;2023-02-22T01:24:06;4.20;99.90
10889;DHT22;5497;51.388;6.780;2023-02-22T01:26:33;4.20;99.90
10889;DHT22;5497;51.388;6.780;2023-02-22T01:29:00;4.20;99.90
10889;DHT22;5497;51.388;6.780;2023-02-22T01:31:26;4.10;99.90
10889;DHT22;5497;51.388;6.780;2023-02-22T01:33:53;4.00;99.90
10889;DHT22;5497;51.388;6.780;2023-02-22T01:36:20;4.00;99.90
10889;DHT22;5497;51.388;6.780;2023-02-22T01:38:48;3.90;99.90
10889;DHT22;5497;51.388;6.780;2023-02-22T01:41:15;3.90;99.90
10889;DHT22;5497;51.388;6.780;2023-02-22T01:43:42;3.90;99.90
10889;DHT22;5497;51.388;6.780;2023-02-22T01:46:20;3.90;99.90
10889;DHT22;5497;51.388;6.780;2023-02-22T01:48:48;4.00;99.90
10889;DHT22;5497;51.388;6.780;2023-02-22T01:51:16;4.10;99.90
10889;DHT22;5497;51.388;6.780;2023-02-22T01:53:45;4.10;99.90
10889;DHT22;5497;51.388;6.780;2023-02-22T01:56:14;4.20;99.90
10889;DHT22;5497;51.388;6.780;2023-02-22T01:58:42;4.30;99.90
10889;DHT22;5497;51.388;6.780;2023-02-22T02:01:09;4.30;99.90
10889;DHT22;5497;51.388;6.780;2023-02-22T02:03:38;4.40;99.90
10889;DHT22;5497;51.388;6.780;2023-02-22T02:06:06;4.40;99.90
10889;DHT22;5497;51.388;6.780;2023-02-22T02:08:38;4.50;99.90
10889;DHT22;5497;51.388;6.780;2023-02-22T02:11:08;4.50;99.90
10889;DHT22;5497;51.388;6.780;2023-02-22T02:13:36;4.50;99.90
10889;DHT22;5497;51.388;6.780;2023-02-22T02:16:04;4.60;99.90
10889;DHT22;5497;51.388;6.780;2023-02-22T02:18:31;4.60;99.90
10889;DHT22;5497;51.388;6.780;2023-02-22T02:21:14;4.40;99.90
10889;DHT22;5497;51.388;6.780;2023-02-22T02:23:56;4.70;99.90
10889;DHT22;5497;51.388;6.780;2023-02-22T02:29:40;4.80;99.90
10889;DHT22;5497;51.388;6.780;2023-02-22T02:32:18;4.80;99.90
10889;DHT22;5497;51.388;6.780;2023-02-22T02:34:48;4.90;99.90
10889;DHT22;5497;51.388;6.780;2023-02-22T02:37:19;4.90;99.90
10889;DHT22;5497;51.388;6.780;2023-02-22T02:39:48;5.00;99.90
10889;DHT22;5497;51.388;6.780;2023-02-22T02:42:18;4.90;99.90
10889;DHT22;5497;51.388;6.780;2023-02-22T02:44:47;4.90;99.90
10889;DHT22;5497;51.388;6.780;2023-02-22T02:47:18;4.90;99.90
10889;DHT22;5497;51.388;6.780;2023-02-22T02:49:50;5.00;99.90
10889;DHT22;5497;51.388;6.780;2023-02-22T02:52:17;4.90;99.90
10889;DHT22;5497;51.388;6.780;2023-02-22T02:54:46;4.90;99.90
10889;DHT22;5497;51.388;6.780;2023-02-22T02:57:14;4.90;99.90
10889;DHT22;5497;51.388;6.780;2023-02-22T02:59:41;4.90;99.90
10889;DHT22;5497;51.388;6.780;2023-02-22T03:02:16;5.00;99.90
10889;DHT22;5497;51.388;6.780;2023-02-22T03:04:50;5.00;99.90
10889;DHT22;5497;51.388;6.780;2023-02-22T03:07:30;5.00;99.90
10889;DHT22;5497;51.388;6.780;2023-02-22T03:10:02;5.10;99.90
10889;DHT22;5497;51.388;6.780;2023-02-22T03:12:37;5.10;99.90
10889;DHT22;5497;51.388;6.780;2023-02-22T03:15:06;5.10;99.90
10889;DHT22;5497;51.388;6.780;2023-02-22T03:17:40;5.20;99.90
10889;DHT22;5497;51.388;6.780;2023-02-22T03:20:11;5.20;99.90
10889;DHT22;5497;51.388;6.780;2023-02-22T03:22:42;5.20;99.90
10889;DHT22;5497;51.388;6.780;2023-02-22T03:25:14;5.20;99.90
10889;DHT22;5497;51.388;6.780;2023-02-22T03:27:44;5.20;99.90
10889;DHT22;5497;51.388;6.780;2023-02-22T03:30:14;5.20;99.90
10889;DHT22;5497;51.388;6.780;2023-02-22T03:32:43;5.20;99.90
10889;DHT22;5497;51.388;6.780;2023-02-22T03:35:13;5.20;99.90
10889;DHT22;5497;51.388;6.780;2023-02-22T03:37:43;5.20;99.90
10889;DHT22;5497;51.388;6.780;2023-02-22T03:40:12;5.20;99.90
10889;DHT22;5497;51.388;6.780;2023-02-22T03:42:44;5.20;99.90
10889;DHT22;5497;51.388;6.780;2023-02-22T03:45:13;5.20;99.90
10889;DHT22;5497;51.388;6.780;2023-02-22T03:47:42;5.20;99.90
10889;DHT22;5497;51.388;6.780;2023-02-22T03:50:11;5.30;99.90
10889;DHT22;5497;51.388;6.780;2023-02-22T03:52:41;5.20;99.90
10889;DHT22;5497;51.388;6.780;2023-02-22T03:55:13;5.20;99.90
10889;DHT22;5497;51.388;6.780;2023-02-22T03:57:43;5.30;99.90
10889;DHT22;5497;51.388;6.780;2023-02-22T04:00:13;5.30;99.90
10889;DHT22;5497;51.388;6.780;2023-02-22T04:02:40;5.30;99.90
10889;DHT22;5497;51.388;6.780;2023-02-22T04:05:11;5.40;99.90
10889;DHT22;5497;51.388;6.780;2023-02-22T04:07:38;5.40;99.90
10889;DHT22;5497;51.388;6.780;2023-02-22T04:10:07;5.40;99.90
10889;DHT22;5497;51.388;6.780;2023-02-22T04:12:34;5.40;99.90
10889;DHT22;5497;51.388;6.780;2023-02-22T04:15:05;5.40;99.90
10889;DHT22;5497;51.388;6.780;2023-02-22T04:17:32;5.40;99.90
10889;DHT22;5497;51.388;6.780;2023-02-22T04:20:01;5.40;99.90
10889;DHT22;5497;51.388;6.780;2023-02-22T04:22:36;5.40;99.90
10889;DHT22;5497;51.388;6.780;2023-02-22T04:25:03;5.40;99.90
10889;DHT22;5497;51.388;6.780;2023-02-22T04:27:31;5.40;99.90
10889;DHT22;5497;51.388;6.780;2023-02-22T04:29:59;5.40;99.90
10889;DHT22;5497;51.388;6.780;2023-02-22T04:32:26;5.30;99.90
10889;DHT22;5497;51.388;6.780;2023-02-22T04:34:53;5.30;99.90
10889;DHT22;5497;51.388;6.780;2023-02-22T04:37:20;5.40;99.90
10889;DHT22;5497;51.388;6.780;2023-02-22T04:39:47;5.30;99.90
10889;DHT22;5497;51.388;6.780;2023-02-22T04:42:13;5.20;99.90
10889;DHT22;5497;51.388;6.780;2023-02-22T04:44:41;5.20;99.90
10889;DHT22;5497;51.388;6.780;2023-02-22T04:47:09;5.20;99.90
10889;DHT22;5497;51.388;6.780;2023-02-22T04:49:35;5.20;99.90
10889;DHT22;5497;51.388;6.780;2023-02-22T04:52:02;5.20;99.90
10889;DHT22;5497;51.388;6.780;2023-02-22T04:54:33;5.20;99.90
10889;DHT22;5497;51.388;6.780;2023-02-22T04:57:00;5.20;99.90
10889;DHT22;5497;51.388;6.780;2023-02-22T04:59:27;5.20;99.90
10889;DHT22;5497;51.388;6.780;2023-02-22T05:01:59;5.20;99.90
10889;DHT22;5497;51.388;6.780;2023-02-22T05:04:26;5.20;99.90
10889;DHT22;5497;51.388;6.780;2023-02-22T05:06:53;5.20;99.90
10889;DHT22;5497;51.388;6.780;2023-02-22T05:09:19;5.20;99.90
10889;DHT22;5497;51.388;6.780;2023-02-22T05:11:46;5.20;99.90
10889;DHT22;5497;51.388;6.780;2023-02-22T05:14:13;5.20;99.90
10889;DHT22;5497;51.388;6.780;2023-02-22T05:16:40;5.30;99.90
10889;DHT22;5497;51.388;6.780;2023-02-22T05:19:08;5.30;99.90
10889;DHT22;5497;51.388;6.780;2023-02-22T05:21:36;5.30;99.90
10889;DHT22;5497;51.388;6.780;2023-02-22T05:24:04;5.40;99.90
10889;DHT22;5497;51.388;6.780;2023-02-22T05:26:31;5.40;99.90
10889;DHT22;5497;51.388;6.780;2023-02-22T05:28:58;5.40;99.90
10889;DHT22;5497;51.388;6.780;2023-02-22T05:31:24;5.40;99.90
10889;DHT22;5497;51.388;6.780;2023-02-22T05:33:51;5.50;99.90
10889;DHT22;5497;51.388;6.780;2023-02-22T05:36:19;5.50;99.90
10889;DHT22;5497;51.388;6.780;2023-02-22T05:38:46;5.50;99.90
10889;DHT22;5497;51.388;6.780;2023-02-22T05:41:12;5.50;99.90
10889;DHT22;5497;51.388;6.780;2023-02-22T05:43:39;5.50;99.90
10889;DHT22;5497;51.388;6.780;2023-02-22T05:46:06;5.50;99.90
10889;DHT22;5497;51.388;6.780;2023-02-22T05:48:33;5.50;99.90
10889;DHT22;5497;51.388;6.780;2023-02-22T05:51:00;5.60;99.90
10889;DHT22;5497;51.388;6.780;2023-02-22T05:53:28;5.60;99.90
10889;DHT22;5497;51.388;6.780;2023-02-22T05:55:54;5.60;99.90
10889;DHT22;5497;51.388;6.780;2023-02-22T05:58:21;5.60;99.90
10889;DHT22;5497;51.388;6.780;2023-02-22T06:00:48;5.60;99.90
10889;DHT22;5497;51.388;6.780;2023-02-22T06:03:15;5.60;99.90
10889;DHT22;5497;51.388;6.780;2023-02-22T06:05:41;5.60;99.90
10889;DHT22;5497;51.388;6.780;2023-02-22T06:08:08;5.60;99.90
10889;DHT22;5497;51.388;6.780;2023-02-22T06:10:36;5.60;99.90
10889;DHT22;5497;51.388;6.780;2023-02-22T06:13:03;5.20;99.90
10889;DHT22;5497;51.388;6.780;2023-02-22T06:15:30;5.60;99.90
10889;DHT22;5497;51.388;6.780;2023-02-22T06:17:57;5.60;99.90
10889;DHT22;5497;51.388;6.780;2023-02-22T06:20:25;5.70;99.90
10889;DHT22;5497;51.388;6.780;2023-02-22T06:22:53;5.60;99.90
10889;DHT22;5497;51.388;6.780;2023-02-22T06:25:21;5.60;99.90
10889;DHT22;5497;51.388;6.780;2023-02-22T06:27:49;5.60;99.90
10889;DHT22;5497;51.388;6.780;2023-02-22T06:30:17;5.70;99.90
10889;DHT22;5497;51.388;6.780;2023-02-22T06:32:44;5.70;99.90
10889;DHT22;5497;51.388;6.780;2023-02-22T06:35:10;5.70;99.90
10889;DHT22;5497;51.388;6.780;2023-02-22T06:37:38;5.70;99.90
10889;DHT22;5497;51.388;6.780;2023-02-22T06:40:05;5.70;99.90
10889;DHT22;5497;51.388;6.780;2023-02-22T06:42:31;5.70;99.90
10889;DHT22;5497;51.388;6.780;2023-02-22T06:45:00;5.60;99.90
10889;DHT22;5497;51.388;6.780;2023-02-22T06:47:26;5.60;99.90
10889;DHT22;5497;51.388;6.780;2023-02-22T06:49:53;5.60;99.90
10889;DHT22;5497;51.388;6.780;2023-02-22T06:52:20;5.70;99.90
10889;DHT22;5497;51.388;6.780;2023-02-22T06:54:47;5.70;99.90
10889;DHT22;5497;51.388;6.780;2023-02-22T06:57:14;5.70;99.90
10889;DHT22;5497;51.388;6.780;2023-02-22T06:59:41;5.80;99.90
10889;DHT22;5497;51.388;6.780;2023-02-22T07:02:09;5.80;99.90
10889;DHT22;5497;51.388;6.780;2023-02-22T07:04:36;5.80;99.90
10889;DHT22;5497;51.388;6.780;2023-02-22T07:07:03;5.80;99.90
10889;DHT22;5497;51.388;6.780;2023-02-22T07:09:30;5.80;99.90
10889;DHT22;5497;51.388;6.780;2023-02-22T07:11:56;5.90;99.90
10889;DHT22;5497;51.388;6.780;2023-02-22T07:14:23;6.00;99.90
10889;DHT22;5497;51.388;6.780;2023-02-22T07:16:50;6.00;99.90
10889;DHT22;5497;51.388;6.780;2023-02-22T07:19:18;6.10;99.90
10889;DHT22;5497;51.388;6.780;2023-02-22T07:21:45;6.10;99.90
10889;DHT22;5497;51.388;6.780;2023-02-22T07:24:12;6.20;99.90
10889;DHT22;5497;51.388;6.780;2023-02-22T07:26:39;6.30;99.90
10889;DHT22;5497;51.388;6.780;2023-02-22T07:29:06;6.40;99.90
10889;DHT22;5497;51.388;6.780;2023-02-22T07:31:33;6.50;99.90
10889;DHT22;5497;51.388;6.780;2023-02-22T07:34:00;6.60;99.90
10889;DHT22;5497;51.388;6.780;2023-02-22T07:36:28;6.80;99.90
10889;DHT22;5497;51.388;6.780;2023-02-22T07:38:55;6.90;99.90
10889;DHT22;5497;51.388;6.780;2023-02-22T07:41:22;6.90;99.90
10889;DHT22;5497;51.388;6.780;2023-02-22T07:43:49;7.20;99.90
10889;DHT22;5497;51.388;6.780;2023-02-22T07:46:16;7.20;99.90
10889;DHT22;5497;51.388;6.780;2023-02-22T07:48:44;7.30;99.90
10889;DHT22;5497;51.388;6.780;2023-02-22T07:51:13;7.40;99.90
10889;DHT22;5497;51.388;6.780;2023-02-22T07:53:41;7.60;99.90
10889;DHT22;5497;51.388;6.780;2023-02-22T07:56:08;7.80;99.90
10889;DHT22;5497;51.388;6.780;2023-02-22T07:58:34;8.00;99.90
10889;DHT22;5497;51.388;6.780;2023-02-22T08:01:01;8.30;99.90
10889;DHT22;5497;51.388;6.780;2023-02-22T08:03:29;8.60;99.90
10889;DHT22;5497;51.388;6.780;2023-02-22T08:05:58;8.80;99.90
10889;DHT22;5497;51.388;6.780;2023-02-22T08:08:27;9.10;99.90
10889;DHT22;5497;51.388;6.780;2023-02-22T08:10:55;9.40;99.90
10889;DHT22;5497;51.388;6.780;2023-02-22T08:13:22;9.60;99.90
10889;DHT22;5497;51.388;6.780;2023-02-22T08:15:49;9.80;99.90
10889;DHT22;5497;51.388;6.780;2023-02-22T08:18:17;10.10;99.90
10889;DHT22;5497;51.388;6.780;2023-02-22T08:20:45;10.30;99.90
10889;DHT22;5497;51.388;6.780;2023-02-22T08:23:12;10.60;99.90
10889;DHT22;5497;51.388;6.780;2023-02-22T08:25:39;10.60;99.90
10889;DHT22;5497;51.388;6.780;2023-02-22T08:28:08;10.70;99.90
10889;DHT22;5497;51.388;6.780;2023-02-22T08:30:36;10.80;99.90
10889;DHT22;5497;51.388;6.780;2023-02-22T08:33:03;10.90;99.90
10889;DHT22;5497;51.388;6.780;2023-02-22T08:35:31;10.90;99.90
10889;DHT22;5497;51.388;6.780;2023-02-22T08:37:59;10.90;99.90
10889;DHT22;5497;51.388;6.780;2023-02-22T08:40:26;11.00;99.90
10889;DHT22;5497;51.388;6.780;2023-02-22T08:42:53;11.10;99.90
10889;DHT22;5497;51.388;6.780;2023-02-22T08:45:22;11.30;99.90
10889;DHT22;5497;51.388;6.780;2023-02-22T08:47:48;12.30;99.90
10889;DHT22;5497;51.388;6.780;2023-02-22T08:50:16;11.50;99.90
10889;DHT22;5497;51.388;6.780;2023-02-22T08:52:43;11.70;99.90
10889;DHT22;5497;51.388;6.780;2023-02-22T08:55:10;11.80;99.90
10889;DHT22;5497;51.388;6.780;2023-02-22T08:57:36;11.90;99.90
10889;DHT22;5497;51.388;6.780;2023-02-22T09:00:04;12.10;99.90
10889;DHT22;5497;51.388;6.780;2023-02-22T09:02:32;12.20;99.90
10889;DHT22;5497;51.388;6.780;2023-02-22T09:04:58;12.40;99.90
10889;DHT22;5497;51.388;6.780;2023-02-22T09:07:25;12.60;99.90
10889;DHT22;5497;51.388;6.780;2023-02-22T09:09:52;12.70;99.90
10889;DHT22;5497;51.388;6.780;2023-02-22T09:12:19;13.00;99.90
10889;DHT22;5497;51.388;6.780;2023-02-22T09:14:46;13.10;99.90
10889;DHT22;5497;51.388;6.780;2023-02-22T09:17:12;13.20;99.90
10889;DHT22;5497;51.388;6.780;2023-02-22T09:19:40;13.30;99.90
10889;DHT22;5497;51.388;6.780;2023-02-22T09:22:07;13.40;99.90
10889;DHT22;5497;51.388;6.780;2023-02-22T09:24:34;13.30;99.90
10889;DHT22;5497;51.388;6.780;2023-02-22T09:27:01;13.50;99.90
10889;DHT22;5497;51.388;6.780;2023-02-22T09:29:28;13.50;99.90
10889;DHT22;5497;51.388;6.780;2023-02-22T09:31:55;13.50;99.90
10889;DHT22;5497;51.388;6.780;2023-02-22T09:34:23;13.60;99.90
10889;DHT22;5497;51.388;6.780;2023-02-22T09:36:55;13.60;99.90
10889;DHT22;5497;51.388;6.780;2023-02-22T09:39:22;13.80;99.90
10889;DHT22;5497;51.388;6.780;2023-02-22T09:41:50;13.90;99.90
10889;DHT22;5497;51.388;6.780;2023-02-22T09:44:21;14.10;99.90
10889;DHT22;5497;51.388;6.780;2023-02-22T09:46:51;13.90;99.90
10889;DHT22;5497;51.388;6.780;2023-02-22T09:49:21;13.90;99.90
10889;DHT22;5497;51.388;6.780;2023-02-22T09:51:51;14.00;99.90
10889;DHT22;5497;51.388;6.780;2023-02-22T09:54:23;14.10;99.90
10889;DHT22;5497;51.388;6.780;2023-02-22T09:56:51;14.20;99.90
10889;DHT22;5497;51.388;6.780;2023-02-22T09:59:20;14.20;99.90
10889;DHT22;5497;51.388;6.780;2023-02-22T10:01:48;14.20;99.90
10889;DHT22;5497;51.388;6.780;2023-02-22T10:04:21;14.20;99.90
10889;DHT22;5497;51.388;6.780;2023-02-22T10:06:57;14.20;99.90
10889;DHT22;5497;51.388;6.780;2023-02-22T10:09:27;14.30;99.90
10889;DHT22;5497;51.388;6.780;2023-02-22T10:11:56;14.30;99.90
10889;DHT22;5497;51.388;6.780;2023-02-22T10:14:28;14.30;99.90
10889;DHT22;5497;51.388;6.780;2023-02-22T10:16:59;14.30;99.90
10889;DHT22;5497;51.388;6.780;2023-02-22T10:19:30;14.30;99.90
10889;DHT22;5497;51.388;6.780;2023-02-22T10:22:09;14.30;99.90
10889;DHT22;5497;51.388;6.780;2023-02-22T10:24:43;14.30;99.90
10889;DHT22;5497;51.388;6.780;2023-02-22T10:27:15;14.30;99.90
10889;DHT22;5497;51.388;6.780;2023-02-22T10:29:43;14.30;99.90
10889;DHT22;5497;51.388;6.780;2023-02-22T10:32:13;14.50;99.90
10889;DHT22;5497;51.388;6.780;2023-02-22T10:34:42;14.60;99.90
10889;DHT22;5497;51.388;6.780;2023-02-22T10:37:15;14.80;99.90
10889;DHT22;5497;51.388;6.780;2023-02-22T10:39:46;14.80;99.90
10889;DHT22;5497;51.388;6.780;2023-02-22T10:42:13;14.90;99.90
10889;DHT22;5497;51.388;6.780;2023-02-22T10:44:40;15.00;99.90
10889;DHT22;5497;51.388;6.780;2023-02-22T10:47:07;15.20;99.90
10889;DHT22;5497;51.388;6.780;2023-02-22T10:49:35;15.40;99.90
10889;DHT22;5497;51.388;6.780;2023-02-22T10:52:03;15.50;99.90
10889;DHT22;5497;51.388;6.780;2023-02-22T10:54:38;15.60;99.90
10889;DHT22;5497;51.388;6.780;2023-02-22T10:57:08;15.60;99.90
10889;DHT22;5497;51.388;6.780;2023-02-22T10:59:37;15.60;99.90
10889;DHT22;5497;51.388;6.780;2023-02-22T11:02:07;16.10;99.90
10889;DHT22;5497;51.388;6.780;2023-02-22T11:04:43;15.80;99.90
10889;DHT22;5497;51.388;6.780;2023-02-22T11:07:15;15.80;99.90
10889;DHT22;5497;51.388;6.780;2023-02-22T11:09:47;15.90;99.90
10889;DHT22;5497;51.388;6.780;2023-02-22T11:12:18;16.00;99.90
10889;DHT22;5497;51.388;6.780;2023-02-22T11:14:45;16.20;99.90
10889;DHT22;5497;51.388;6.780;2023-02-22T11:17:13;16.30;99.90
10889;DHT22;5497;51.388;6.780;2023-02-22T11:19:44;16.40;99.90
10889;DHT22;5497;51.388;6.780;2023-02-22T11:22:12;16.60;99.90
10889;DHT22;5497;51.388;6.780;2023-02-22T11:24:43;16.70;99.90
10889;DHT22;5497;51.388;6.780;2023-02-22T11:27:20;16.80;99.90
10889;DHT22;5497;51.388;6.780;2023-02-22T11:29:49;16.90;99.90
10889;DHT22;5497;51.388;6.780;2023-02-22T11:32:17;16.90;99.90
10889;DHT22;5497;51.388;6.780;2023-02-22T11:34:46;16.90;99.90
10889;DHT22;5497;51.388;6.780;2023-02-22T11:40:07;17.00;99.90
10889;DHT22;5497;51.388;6.780;2023-02-22T11:42:37;17.10;99.90
10889;DHT22;5497;51.388;6.780;2023-02-22T11:45:08;17.10;99.90
10889;DHT22;5497;51.388;6.780;2023-02-22T11:47:35;17.10;99.90
10889;DHT22;5497;51.388;6.780;2023-02-22T11:50:02;17.20;99.90
10889;DHT22;5497;51.388;6.780;2023-02-22T11:52:36;17.20;99.90
10889;DHT22;5497;51.388;6.780;2023-02-22T11:55:12;17.30;99.90
10889;DHT22;5497;51.388;6.780;2023-02-22T11:57:51;17.40;99.90
10889;DHT22;5497;51.388;6.780;2023-02-22T12:00:20;17.60;99.90
10889;DHT22;5497;51.388;6.780;2023-02-22T12:02:57;17.70;99.90
10889;DHT22;5497;51.388;6.780;2023-02-22T12:05:30;17.90;99.90
10889;DHT22;5497;51.388;6.780;2023-02-22T12:08:05;18.00;99.90
10889;DHT22;5497;51.388;6.780;2023-02-22T12:10:39;18.00;99.90
10889;DHT22;5497;51.388;6.780;2023-02-22T12:13:13;18.20;99.90
10889;DHT22;5497;51.388;6.780;2023-02-22T12:15:46;18.30;99.90
10889;DHT22;5497;51.388;6.780;2023-02-22T12:18:17;18.30;99.90
10889;DHT22;5497;51.388;6.780;2023-02-22T12:20:46;18.30;99.90
10889;DHT22;5497;51.388;6.780;2023-02-22T12:23:17;18.20;99.90
10889;DHT22;5497;51.388;6.780;2023-02-22T12:25:51;18.20;99.90
10889;DHT22;5497;51.388;6.780;2023-02-22T12:28:25;18.20;99.90
10889;DHT22;5497;51.388;6.780;2023-02-22T12:30:55;18.20;99.90
10889;DHT22;5497;51.388;6.780;2023-02-22T12:33:27;18.30;99.90
10889;DHT22;5497;51.388;6.780;2023-02-22T12:35:55;18.40;99.90
10889;DHT22;5497;51.388;6.780;2023-02-22T12:38:25;18.30;99.90
10889;DHT22;5497;51.388;6.780;2023-02-22T12:40:57;18.40;99.90
10889;DHT22;5497;51.388;6.780;2023-02-22T12:43:31;18.30;99.90
10889;DHT22;5497;51.388;6.780;2023-02-22T12:45:59;18.30;99.90
10889;DHT22;5497;51.388;6.780;2023-02-22T12:48:34;18.30;99.90
10889;DHT22;5497;51.388;6.780;2023-02-22T12:51:04;18.30;99.90
10889;DHT22;5497;51.388;6.780;2023-02-22T12:53:33;18.20;99.90
10889;DHT22;5497;51.388;6.780;2023-02-22T12:56:04;19.50;99.90
10889;DHT22;5497;51.388;6.780;2023-02-22T12:58:38;18.00;99.90
10889;DHT22;5497;51.388;6.780;2023-02-22T13:01:10;18.00;99.90
10889;DHT22;5497;51.388;6.780;2023-02-22T13:03:39;18.00;99.90
10889;DHT22;5497;51.388;6.780;2023-02-22T13:06:10;17.80;99.90
10889;DHT22;5497;51.388;6.780;2023-02-22T13:08:40;18.20;99.90
10889;DHT22;5497;51.388;6.780;2023-02-22T13:11:12;17.90;99.90
10889;DHT22;5497;51.388;6.780;2023-02-22T13:13:43;17.90;99.90
10889;DHT22;5497;51.388;6.780;2023-02-22T13:16:21;17.90;99.90
10889;DHT22;5497;51.388;6.780;2023-02-22T13:18:53;18.00;99.90
10889;DHT22;5497;51.388;6.780;2023-02-22T13:21:26;17.90;99.90
10889;DHT22;5497;51.388;6.780;2023-02-22T13:23:55;17.80;99.90
10889;DHT22;5497;51.388;6.780;2023-02-22T13:26:28;17.80;99.90
10889;DHT22;5497;51.388;6.780;2023-02-22T13:32:30;17.70;99.90
10889;DHT22;5497;51.388;6.780;2023-02-22T13:43:21;17.70;99.90
10889;DHT22;5497;51.388;6.780;2023-02-22T13:46:08;17.70;99.90
10889;DHT22;5497;51.388;6.780;2023-02-22T13:51:32;17.70;99.90
10889;DHT22;5497;51.388;6.780;2023-02-22T13:54:01;17.80;99.90
10889;DHT22;5497;51.388;6.780;2023-02-22T13:56:29;17.80;99.90
10889;DHT22;5497;51.388;6.780;2023-02-22T13:58:56;17.90;99.90
10889;DHT22;5497;51.388;6.780;2023-02-22T14:01:36;18.00;99.90
10889;DHT22;5497;51.388;6.780;2023-02-22T14:04:32;18.10;99.90
10889;DHT22;5497;51.388;6.780;2023-02-22T14:07:03;18.10;99.90
10889;DHT22;5497;51.388;6.780;2023-02-22T14:09:43;18.30;99.90
10889;DHT22;5497;51.388;6.780;2023-02-22T14:15:07;18.20;99.90
10889;DHT22;5497;51.388;6.780;2023-02-22T14:17:39;18.10;99.90
10889;DHT22;5497;51.388;6.780;2023-02-22T14:20:25;18.00;99.90
10889;DHT22;5497;51.388;6.780;2023-02-22T14:23:23;18.00;99.90
10889;DHT22;5497;51.388;6.780;2023-02-22T14:25:45;17.80;99.90
10889;DHT22;5497;51.388;6.780;2023-02-22T14:31:02;17.70;99.90
10889;DHT22;5497;51.388;6.780;2023-02-22T14:36:15;17.30;99.90
10889;DHT22;5497;51.388;6.780;2023-02-22T14:38:43;17.20;99.90
10889;DHT22;5497;51.388;6.780;2023-02-22T14:41:11;17.10;99.90
10889;DHT22;5497;51.388;6.780;2023-02-22T14:43:39;16.90;99.90
10889;DHT22;5497;51.388;6.780;2023-02-22T14:46:07;16.90;99.90
10889;DHT22;5497;51.388;6.780;2023-02-22T14:48:36;16.90;99.90
10889;DHT22;5497;51.388;6.780;2023-02-22T14:51:12;16.80;99.90
10889;DHT22;5497;51.388;6.780;2023-02-22T14:53:41;16.80;99.90
10889;DHT22;5497;51.388;6.780;2023-02-22T14:56:14;16.80;99.90
10889;DHT22;5497;51.388;6.780;2023-02-22T14:58:45;16.80;99.90
10889;DHT22;5497;51.388;6.780;2023-02-22T15:04:04;16.90;99.90
10889;DHT22;5497;51.388;6.780;2023-02-22T15:06:41;17.00;99.90
10889;DHT22;5497;51.388;6.780;2023-02-22T15:09:11;17.00;99.90
10889;DHT22;5497;51.388;6.780;2023-02-22T15:11:40;17.00;99.90
10889;DHT22;5497;51.388;6.780;2023-02-22T15:14:14;17.00;99.90
10889;DHT22;5497;51.388;6.780;2023-02-22T15:16:42;17.00;99.90
10889;DHT22;5497;51.388;6.780;2023-02-22T15:19:12;16.90;99.90
10889;DHT22;5497;51.388;6.780;2023-02-22T15:21:43;16.90;99.90
10889;DHT22;5497;51.388;6.780;2023-02-22T15:24:10;16.80;99.90
10889;DHT22;5497;51.388;6.780;2023-02-22T15:26:47;16.70;99.90
10889;DHT22;5497;51.388;6.780;2023-02-22T15:29:14;16.70;99.90
10889;DHT22;5497;51.388;6.780;2023-02-22T15:31:41;16.60;99.90
10889;DHT22;5497;51.388;6.780;2023-02-22T15:34:16;16.50;99.90
10889;DHT22;5497;51.388;6.780;2023-02-22T15:36:46;16.40;99.90
10889;DHT22;5497;51.388;6.780;2023-02-22T15:39:17;16.10;99.90
10889;DHT22;5497;51.388;6.780;2023-02-22T15:41:44;16.10;99.90
10889;DHT22;5497;51.388;6.780;2023-02-22T15:44:12;16.00;99.90
10889;DHT22;5497;51.388;6.780;2023-02-22T15:46:39;15.90;99.90
10889;DHT22;5497;51.388;6.780;2023-02-22T15:49:16;15.70;99.90
10889;DHT22;5497;51.388;6.780;2023-02-22T15:51:44;15.50;99.90
10889;DHT22;5497;51.388;6.780;2023-02-22T15:54:13;15.40;99.90
10889;DHT22;5497;51.388;6.780;2023-02-22T15:56:40;15.30;99.90
10889;DHT22;5497;51.388;6.780;2023-02-22T15:59:15;15.20;99.90
10889;DHT22;5497;51.388;6.780;2023-02-22T16:01:43;15.50;99.90
10889;DHT22;5497;51.388;6.780;2023-02-22T16:04:14;16.60;99.90
10889;DHT22;5497;51.388;6.780;2023-02-22T16:06:41;15.00;99.90
10889;DHT22;5497;51.388;6.780;2023-02-22T16:09:09;15.00;99.90
10889;DHT22;5497;51.388;6.780;2023-02-22T16:11:37;14.90;99.90
10889;DHT22;5497;51.388;6.780;2023-02-22T16:17:08;14.80;99.90
10889;DHT22;5497;51.388;6.780;2023-02-22T16:19:36;14.70;99.90
10889;DHT22;5497;51.388;6.780;2023-02-22T16:22:04;14.80;99.90
10889;DHT22;5497;51.388;6.780;2023-02-22T16:24:37;14.60;99.90
10889;DHT22;5497;51.388;6.780;2023-02-22T16:27:19;14.60;99.90
10889;DHT22;5497;51.388;6.780;2023-02-22T16:30:00;14.50;99.90
10889;DHT22;5497;51.388;6.780;2023-02-22T16:32:28;14.50;99.90
10889;DHT22;5497;51.388;6.780;2023-02-22T16:34:55;14.40;99.90
10889;DHT22;5497;51.388;6.780;2023-02-22T16:37:22;14.30;99.90
10889;DHT22;5497;51.388;6.780;2023-02-22T16:39:49;14.30;99.90
10889;DHT22;5497;51.388;6.780;2023-02-22T16:42:17;14.20;99.90